KHJO

Hanford Municipal Airport

Hanford, California, USA
METAR KHJO 181508Z AUTO 19003KT 1 3/4SM BR OVC004 10/09 A3015 RMK AO2 T01000094
Observed Flight Rules
Jan-18 @ 15:08 UTC (33 minutes ago) Instrument Flight Rules
Wind Visibility Clouds Conditions
190° at 3 knots 1 3/4 miles
  • Overcast at 400' AGL
  • Mist
Temperatures Readings
Current 10°C / 50°F
Dewpoint 9°C / 48°F
Humidity 94%
Altimeter 30.15" Hg
Pressure 1021 hPa
Elevation 74
METAR KHJO 181508Z AUTO 19003KT 1 3/4SM BR OVC004 10/09 A3015 RMK AO2 T01000094
Observed Flight Rules
Jan-18 @ 15:08 UTC
(33 minutes ago)
LIFR
Wind Visibility
190° at 3 knots 1 3/4 miles
Clouds
  • Overcast at 400' AGL
Conditions
  • Mist
Temperature Dewpoint
10°C / 50°F 9°C / 48°F
Humidity Altimeter Pressure
94% 30.15" Hg 1021 hPa